Time;durP1;ratioP1;P1;durP2;ratioP2;P2;SDS_P1;SDS_P2;PMS_P1;PMS_P2;Temp;Humidity;BMP_temperature;BMP_pressure;BME280_temperature;BME280_humidity;BME280_pressure;Samples;Min_cycle;Max_cycle;Signal;HPM_P1;HPM_P2
2021/09/06 00:01:12;;;;;;;37.95;27.33;;;13.00;99.90;;;;;;5072934;28;20304;-67
2021/09/06 00:03:41;;;;;;;33.50;26.77;;;13.00;99.90;;;;;;5073098;28;20201;-68
2021/09/06 00:06:10;;;;;;;37.63;27.37;;;13.00;99.90;;;;;;5072138;28;20233;-68
2021/09/06 00:08:37;;;;;;;36.27;27.00;;;12.90;99.90;;;;;;5072603;28;20201;-67
2021/09/06 00:11:08;;;;;;;36.78;26.13;;;12.90;99.90;;;;;;5072758;28;20234;-68
2021/09/06 00:13:37;;;;;;;37.03;26.98;;;12.90;99.90;;;;;;5073153;28;20268;-67
2021/09/06 00:16:06;;;;;;;39.80;29.20;;;12.80;99.90;;;;;;5072679;28;20303;-68
2021/09/06 00:18:34;;;;;;;42.58;29.55;;;12.90;99.90;;;;;;5072780;28;20204;-68
2021/09/06 00:21:06;;;;;;;39.55;27.58;;;12.80;99.90;;;;;;5072360;28;20396;-66
2021/09/06 00:23:35;;;;;;;39.97;29.02;;;12.80;99.90;;;;;;5072673;28;20272;-67
2021/09/06 00:26:04;;;;;;;44.87;30.20;;;12.90;99.90;;;;;;5072336;28;20204;-68
2021/09/06 00:28:32;;;;;;;42.65;30.92;;;12.80;99.90;;;;;;5076345;28;20280;-67
2021/09/06 00:31:01;;;;;;;43.10;32.20;;;12.80;99.90;;;;;;5076799;28;20307;-68
2021/09/06 00:33:29;;;;;;;47.00;32.10;;;12.70;99.90;;;;;;5077023;28;20197;-67
2021/09/06 00:35:57;;;;;;;45.10;32.05;;;12.70;99.90;;;;;;5076644;28;20204;-68
2021/09/06 00:38:26;;;;;;;43.95;32.20;;;12.70;99.90;;;;;;5076403;28;20258;-67
2021/09/06 00:40:54;;;;;;;46.63;32.60;;;12.70;99.90;;;;;;5076276;28;20295;-68
2021/09/06 00:43:22;;;;;;;45.30;32.00;;;12.70;99.90;;;;;;5076368;28;20303;-67
2021/09/06 00:45:50;;;;;;;45.97;33.45;;;12.70;99.90;;;;;;5076346;28;20239;-67
2021/09/06 00:48:18;;;;;;;44.90;33.38;;;12.70;99.90;;;;;;5076289;28;20263;-68
2021/09/06 00:50:47;;;;;;;46.00;35.55;;;12.70;99.90;;;;;;5076038;28;20217;-67
2021/09/06 00:53:16;;;;;;;48.03;34.28;;;12.60;99.90;;;;;;5076119;28;20228;-67
2021/09/06 00:55:45;;;;;;;48.30;36.28;;;12.60;99.90;;;;;;5076171;28;20299;-68
2021/09/06 00:58:13;;;;;;;46.40;35.70;;;12.60;99.90;;;;;;5076247;28;20624;-67
2021/09/06 01:00:41;;;;;;;47.72;35.60;;;12.60;99.90;;;;;;5076170;28;20300;-67
2021/09/06 01:03:09;;;;;;;51.35;36.45;;;12.60;99.90;;;;;;5076414;28;20213;-69
2021/09/06 01:05:37;;;;;;;48.42;35.03;;;12.50;99.90;;;;;;5075505;28;20243;-67
2021/09/06 01:08:05;;;;;;;49.63;36.58;;;12.50;99.90;;;;;;5075751;28;20203;-67
2021/09/06 01:10:33;;;;;;;50.80;36.80;;;12.50;99.90;;;;;;5075502;28;20222;-67
2021/09/06 01:13:03;;;;;;;54.60;36.80;;;12.50;99.90;;;;;;5075909;28;20200;-66
2021/09/06 01:15:31;;;;;;;52.57;38.30;;;12.50;99.90;;;;;;5075633;28;20196;-67
2021/09/06 01:17:59;;;;;;;51.78;37.03;;;12.50;99.90;;;;;;5075528;28;20569;-68
2021/09/06 01:20:27;;;;;;;49.30;36.15;;;12.50;99.90;;;;;;5075602;28;20292;-67
2021/09/06 01:22:55;;;;;;;50.03;38.35;;;12.50;99.90;;;;;;5075343;28;20205;-68
2021/09/06 01:25:23;;;;;;;47.80;36.23;;;12.40;99.90;;;;;;5075210;28;20677;-67
2021/09/06 01:27:52;;;;;;;50.97;37.00;;;12.40;99.90;;;;;;5075310;28;20300;-67
2021/09/06 01:30:20;;;;;;;53.77;37.73;;;12.40;99.90;;;;;;5075202;28;20319;-66
2021/09/06 01:32:48;;;;;;;51.23;38.87;;;12.40;99.90;;;;;;5075317;28;20296;-67
2021/09/06 01:35:16;;;;;;;54.10;38.53;;;12.40;99.90;;;;;;5075136;28;20748;-66
2021/09/06 01:37:43;;;;;;;56.05;39.95;;;12.40;99.90;;;;;;5074635;28;20296;-67
2021/09/06 01:40:12;;;;;;;52.60;38.87;;;12.40;99.90;;;;;;5075275;28;20284;-69
2021/09/06 01:42:40;;;;;;;54.40;40.00;;;12.40;99.90;;;;;;5075299;28;20204;-66
2021/09/06 01:45:10;;;;;;;57.77;40.33;;;12.40;99.90;;;;;;5075150;28;20197;-67
2021/09/06 01:47:38;;;;;;;55.53;38.90;;;12.40;99.90;;;;;;5074635;28;20227;-67
2021/09/06 01:50:07;;;;;;;50.13;37.97;;;12.30;99.90;;;;;;5074676;28;20239;-67
2021/09/06 01:52:34;;;;;;;55.53;38.43;;;12.30;99.90;;;;;;5075077;28;20540;-67
2021/09/06 01:55:03;;;;;;;55.60;39.40;;;12.30;99.90;;;;;;5074791;28;20224;-67
2021/09/06 01:57:31;;;;;;;60.07;40.67;;;12.30;99.90;;;;;;5070129;28;20249;-69
2021/09/06 01:59:59;;;;;;;55.97;40.60;;;12.30;99.90;;;;;;5054647;28;20204;-67
2021/09/06 02:02:29;;;;;;;55.60;39.83;;;12.30;99.90;;;;;;5054710;28;20288;-67
2021/09/06 02:04:57;;;;;;;52.17;38.50;;;12.30;99.90;;;;;;5054324;28;20232;-67
2021/09/06 02:07:25;;;;;;;55.73;39.67;;;12.20;99.90;;;;;;5054593;28;20190;-66
2021/09/06 02:09:52;;;;;;;53.50;39.67;;;12.20;99.90;;;;;;5054340;28;20206;-67
2021/09/06 02:12:20;;;;;;;54.53;38.83;;;12.20;99.90;;;;;;5054689;28;20197;-66
2021/09/06 02:14:48;;;;;;;61.13;39.73;;;12.20;99.90;;;;;;5054337;28;20579;-66
2021/09/06 02:17:16;;;;;;;52.97;38.80;;;12.20;99.90;;;;;;5054376;28;20205;-67
2021/09/06 02:19:45;;;;;;;53.47;39.83;;;12.20;99.90;;;;;;5054273;28;20642;-68
2021/09/06 02:22:13;;;;;;;54.30;37.50;;;12.20;99.90;;;;;;5054109;28;20299;-66
2021/09/06 02:24:41;;;;;;;51.60;38.10;;;12.10;99.90;;;;;;5053989;28;20672;-66
2021/09/06 02:27:09;;;;;;;50.70;36.80;;;12.10;99.90;;;;;;5053990;28;20695;-66
2021/09/06 02:29:36;;;;;;;48.50;36.03;;;12.10;99.90;;;;;;5053940;28;20202;-67
2021/09/06 02:32:05;;;;;;;49.77;36.20;;;12.10;99.90;;;;;;5054228;28;20221;-66
2021/09/06 02:34:33;;;;;;;51.65;36.30;;;12.10;99.90;;;;;;5054211;28;20201;-68
2021/09/06 02:37:02;;;;;;;44.00;33.97;;;12.10;99.90;;;;;;5053793;28;20236;-67
2021/09/06 02:39:30;;;;;;;45.27;33.47;;;12.00;99.90;;;;;;5054124;28;20292;-67
2021/09/06 02:41:59;;;;;;;45.67;33.47;;;12.00;99.90;;;;;;5054152;28;20284;-67
2021/09/06 02:44:28;;;;;;;44.37;32.40;;;12.00;99.90;;;;;;5053775;28;20566;-66
2021/09/06 02:46:56;;;;;;;42.20;32.50;;;12.00;99.90;;;;;;5053711;28;20734;-70
2021/09/06 02:49:24;;;;;;;45.10;33.60;;;12.00;99.90;;;;;;5053103;28;20304;-67
2021/09/06 02:51:52;;;;;;;44.97;33.63;;;12.00;99.90;;;;;;5053744;28;20239;-67
2021/09/06 02:54:21;;;;;;;47.63;32.77;;;11.90;99.90;;;;;;5053705;28;20288;-67
2021/09/06 02:56:49;;;;;;;42.67;32.20;;;11.90;99.90;;;;;;5053837;28;20209;-67
2021/09/06 02:59:17;;;;;;;44.80;32.00;;;12.00;99.90;;;;;;5053839;28;20391;-68
2021/09/06 03:01:45;;;;;;;44.40;32.47;;;11.90;99.90;;;;;;5053560;28;20262;-66
2021/09/06 03:04:13;;;;;;;43.33;31.67;;;11.90;99.90;;;;;;5053486;28;20206;-68
2021/09/06 03:06:41;;;;;;;38.87;30.03;;;11.90;99.90;;;;;;5052988;28;20239;-67
2021/09/06 03:09:09;;;;;;;39.55;30.10;;;11.90;99.90;;;;;;5053152;28;20653;-68
2021/09/06 03:11:38;;;;;;;40.17;30.97;;;11.80;99.90;;;;;;5053278;28;20213;-67
2021/09/06 03:14:06;;;;;;;41.63;31.50;;;11.80;99.90;;;;;;5053263;28;20701;-67
2021/09/06 03:16:34;;;;;;;40.70;32.00;;;11.80;99.90;;;;;;5053166;28;20203;-67
2021/09/06 03:19:02;;;;;;;40.77;30.80;;;11.80;99.90;;;;;;5053220;28;20642;-68
2021/09/06 03:21:30;;;;;;;40.07;29.80;;;11.80;99.90;;;;;;5053114;28;20193;-67
2021/09/06 03:23:57;;;;;;;39.03;30.57;;;11.80;99.90;;;;;;5053389;28;20204;-68
2021/09/06 03:26:25;;;;;;;42.13;30.23;;;11.80;99.90;;;;;;5052946;28;20201;-67
2021/09/06 03:28:55;;;;;;;40.40;30.67;;;11.80;99.90;;;;;;5053243;28;20720;-68
2021/09/06 03:31:23;;;;;;;39.20;30.20;;;11.80;99.90;;;;;;5052609;28;20312;-67
2021/09/06 03:33:51;;;;;;;39.83;29.77;;;11.80;99.90;;;;;;5053033;28;20316;-68
2021/09/06 03:36:20;;;;;;;37.57;29.27;;;11.70;99.90;;;;;;5053087;28;20197;-67
2021/09/06 03:38:48;;;;;;;38.03;29.17;;;11.70;99.90;;;;;;5053038;28;20201;-67
2021/09/06 03:41:16;;;;;;;38.87;29.60;;;11.70;99.90;;;;;;5052901;28;20201;-67
2021/09/06 03:43:44;;;;;;;36.73;28.50;;;11.70;99.90;;;;;;5053080;28;20202;-67
2021/09/06 03:46:13;;;;;;;37.67;29.87;;;11.60;99.90;;;;;;5052828;28;20206;-66
2021/09/06 03:48:41;;;;;;;37.83;29.70;;;11.60;99.90;;;;;;5052590;28;20567;-68
2021/09/06 03:51:09;;;;;;;38.80;28.30;;;11.60;99.90;;;;;;5052393;28;20760;-67
2021/09/06 03:53:37;;;;;;;40.47;30.33;;;11.60;99.90;;;;;;5052785;28;20288;-66
2021/09/06 03:56:10;;;;;;;39.00;29.80;;;11.60;99.90;;;;;;5052891;28;20225;-67
2021/09/06 03:58:38;;;;;;;39.67;29.80;;;11.50;99.90;;;;;;5052727;28;20201;-67
2021/09/06 04:01:06;;;;;;;37.23;28.57;;;11.50;99.90;;;;;;5052542;28;20673;-67
2021/09/06 04:03:35;;;;;;;36.10;29.00;;;11.50;99.90;;;;;;5052636;28;20255;-68
2021/09/06 04:06:03;;;;;;;40.40;29.77;;;11.50;99.90;;;;;;5052067;28;20234;-66
2021/09/06 04:08:31;;;;;;;39.73;28.90;;;11.50;99.90;;;;;;5052593;28;20376;-67
2021/09/06 04:10:59;;;;;;;38.30;28.47;;;11.50;99.90;;;;;;5052090;28;20748;-67
2021/09/06 04:13:27;;;;;;;38.43;28.87;;;11.50;99.90;;;;;;5052399;28;20207;-66
2021/09/06 04:15:55;;;;;;;37.80;28.57;;;11.50;99.90;;;;;;5052870;28;20659;-67
2021/09/06 04:18:23;;;;;;;37.83;28.00;;;11.50;99.90;;;;;;5052443;28;20264;-67
2021/09/06 04:20:52;;;;;;;38.53;28.63;;;11.40;99.90;;;;;;5052537;28;20233;-67
2021/09/06 04:23:20;;;;;;;37.97;28.10;;;11.40;99.90;;;;;;5052585;28;20201;-67
2021/09/06 04:25:47;;;;;;;41.10;30.03;;;11.40;99.90;;;;;;5052128;28;20683;-67
2021/09/06 04:28:15;;;;;;;37.73;29.50;;;11.40;99.90;;;;;;5052383;28;20236;-67
2021/09/06 04:30:43;;;;;;;40.10;30.10;;;11.40;99.90;;;;;;5052260;28;20628;-67
2021/09/06 04:33:12;;;;;;;36.00;29.07;;;11.40;99.90;;;;;;5052064;28;20229;-68
2021/09/06 04:35:39;;;;;;;40.70;30.70;;;11.40;99.90;;;;;;5052178;28;20287;-67
2021/09/06 04:38:09;;;;;;;35.03;28.20;;;11.40;99.90;;;;;;5052930;28;20201;-66
2021/09/06 04:40:36;;;;;;;36.73;27.70;;;11.40;99.90;;;;;;5052879;28;20300;-67
2021/09/06 04:43:04;;;;;;;36.90;27.17;;;11.40;99.90;;;;;;5052591;28;20239;-68
2021/09/06 04:45:32;;;;;;;38.60;28.80;;;11.40;99.90;;;;;;5052194;28;20673;-67
2021/09/06 04:48:00;;;;;;;40.10;28.33;;;11.40;99.90;;;;;;5052083;28;20289;-67
2021/09/06 04:50:28;;;;;;;38.87;28.47;;;11.40;99.90;;;;;;5051891;28;20268;-67
2021/09/06 04:52:56;;;;;;;40.20;29.63;;;11.40;99.90;;;;;;5052363;28;20221;-67
2021/09/06 04:55:25;;;;;;;43.43;30.57;;;11.40;99.90;;;;;;5052211;28;20201;-67
2021/09/06 04:57:53;;;;;;;42.73;30.90;;;11.50;99.90;;;;;;5052189;28;20292;-67
2021/09/06 05:00:22;;;;;;;43.40;31.57;;;11.50;99.90;;;;;;5052328;28;20217;-67
2021/09/06 05:02:50;;;;;;;45.17;32.30;;;11.50;99.90;;;;;;5052058;28;20304;-68
2021/09/06 05:05:18;;;;;;;45.63;31.70;;;11.60;99.90;;;;;;5051567;28;20256;-66
2021/09/06 05:07:46;;;;;;;42.73;31.50;;;11.60;99.90;;;;;;5052088;28;20634;-67
2021/09/06 05:10:14;;;;;;;43.80;31.33;;;11.70;99.90;;;;;;5052088;28;20209;-68
2021/09/06 05:12:43;;;;;;;45.87;31.90;;;11.80;99.90;;;;;;5052203;28;20320;-67
2021/09/06 05:15:11;;;;;;;48.73;32.73;;;11.90;99.90;;;;;;5055543;28;20300;-67
2021/09/06 05:17:39;;;;;;;44.03;32.00;;;11.90;99.90;;;;;;5055041;28;20205;-68
2021/09/06 05:20:08;;;;;;;39.23;30.17;;;12.00;99.90;;;;;;5055520;28;20243;-69
2021/09/06 05:22:36;;;;;;;40.92;31.30;;;12.10;99.90;;;;;;5055136;28;20233;-68
2021/09/06 05:25:04;;;;;;;41.03;29.63;;;12.20;99.90;;;;;;5055525;28;20300;-68
2021/09/06 05:27:32;;;;;;;41.00;28.75;;;12.20;99.90;;;;;;5055351;28;20202;-67
2021/09/06 05:30:01;;;;;;;40.93;30.17;;;12.30;99.90;;;;;;5055362;28;20208;-67
2021/09/06 05:32:29;;;;;;;37.77;28.77;;;12.40;99.90;;;;;;5054886;28;20228;-67
2021/09/06 05:34:57;;;;;;;38.50;29.07;;;12.50;99.90;;;;;;5055119;28;20300;-67
2021/09/06 05:37:25;;;;;;;38.97;27.80;;;12.50;99.90;;;;;;5055284;28;20616;-67
2021/09/06 05:39:53;;;;;;;37.60;27.58;;;12.60;99.90;;;;;;5055094;28;20203;-67
2021/09/06 05:42:21;;;;;;;41.47;27.63;;;12.70;99.90;;;;;;5055098;28;20291;-68
2021/09/06 05:44:50;;;;;;;38.55;28.23;;;12.80;99.90;;;;;;5054896;28;20292;-68
2021/09/06 05:47:19;;;;;;;37.33;26.90;;;12.90;99.90;;;;;;5054840;28;20208;-68
2021/09/06 05:49:47;;;;;;;32.73;25.63;;;12.90;99.90;;;;;;5054621;28;20205;-68
2021/09/06 05:52:15;;;;;;;37.72;27.25;;;13.00;99.90;;;;;;5054143;28;20225;-68
2021/09/06 05:54:43;;;;;;;39.95;28.38;;;13.20;99.90;;;;;;5054875;28;20211;-68
2021/09/06 05:57:11;;;;;;;36.88;26.38;;;13.30;99.90;;;;;;5054854;28;20201;-67
2021/09/06 05:59:38;;;;;;;40.40;27.95;;;13.40;99.90;;;;;;5054554;28;20205;-67
2021/09/06 06:02:06;;;;;;;38.63;26.70;;;13.50;99.90;;;;;;5054744;28;20251;-68
2021/09/06 06:04:36;;;;;;;35.42;27.48;;;13.50;99.90;;;;;;5054720;28;20206;-66
2021/09/06 06:07:04;;;;;;;35.67;26.80;;;13.50;99.90;;;;;;5054556;28;20196;-67
2021/09/06 06:09:32;;;;;;;35.22;25.77;;;13.60;99.90;;;;;;5054866;28;20205;-66
2021/09/06 06:12:00;;;;;;;32.58;25.15;;;13.60;99.90;;;;;;5054730;28;20288;-67
2021/09/06 06:14:27;;;;;;;33.60;24.92;;;13.70;99.90;;;;;;5054367;28;20623;-68
2021/09/06 06:16:55;;;;;;;35.75;26.67;;;13.80;99.90;;;;;;5050143;28;20258;-67
2021/09/06 06:19:23;;;;;;;33.83;25.45;;;13.80;99.90;;;;;;5054443;28;20284;-66
2021/09/06 06:21:53;;;;;;;36.15;26.60;;;13.80;99.90;;;;;;5054254;28;20204;-67
2021/09/06 06:24:20;;;;;;;37.58;26.70;;;13.90;99.90;;;;;;5054489;28;20200;-67
2021/09/06 06:26:48;;;;;;;34.95;25.45;;;13.90;99.90;;;;;;5046961;28;20226;-67
2021/09/06 06:29:16;;;;;;;31.00;24.15;;;14.00;99.90;;;;;;5034294;28;20208;-67
2021/09/06 06:31:44;;;;;;;35.13;25.63;;;14.10;99.90;;;;;;5034035;28;20206;-67
2021/09/06 06:34:12;;;;;;;33.05;24.10;;;14.10;99.90;;;;;;5034473;28;20214;-67
2021/09/06 06:36:39;;;;;;;32.33;23.75;;;14.20;99.90;;;;;;5034314;28;20598;-68
2021/09/06 06:39:11;;;;;;;31.38;23.58;;;14.10;99.90;;;;;;5034444;28;20187;-67
2021/09/06 06:41:39;;;;;;;30.85;23.52;;;14.20;99.90;;;;;;5033739;28;20296;-67
2021/09/06 06:44:07;;;;;;;30.58;23.52;;;14.30;99.90;;;;;;5034883;28;20293;-67
2021/09/06 06:46:35;;;;;;;28.08;22.10;;;14.30;99.90;;;;;;5034927;28;20297;-68
2021/09/06 06:49:03;;;;;;;30.70;24.17;;;14.40;99.90;;;;;;5034116;28;20650;-67
2021/09/06 06:51:31;;;;;;;29.98;24.17;;;14.50;99.90;;;;;;5034059;28;20202;-67
2021/09/06 06:53:59;;;;;;;31.30;23.80;;;14.50;99.90;;;;;;5033775;28;20218;-67
2021/09/06 06:56:28;;;;;;;29.77;23.85;;;14.50;99.90;;;;;;5033773;28;20237;-69
2021/09/06 06:58:56;;;;;;;34.33;24.83;;;14.60;99.90;;;;;;5033942;28;20235;-67
2021/09/06 07:01:24;;;;;;;29.95;23.88;;;14.50;99.90;;;;;;5033603;28;20305;-70
2021/09/06 07:03:52;;;;;;;31.80;24.25;;;14.60;99.90;;;;;;5033759;28;20241;-66
2021/09/06 07:06:20;;;;;;;28.15;22.38;;;14.70;99.90;;;;;;5032840;28;20233;-66
2021/09/06 07:08:48;;;;;;;29.40;23.58;;;14.70;99.90;;;;;;5050459;28;20243;-63
2021/09/06 07:11:16;;;;;;;27.80;23.63;;;14.90;99.90;;;;;;5050582;28;20235;-64
2021/09/06 07:13:45;;;;;;;32.65;24.45;;;15.00;99.90;;;;;;5050563;28;20324;-63
2021/09/06 07:16:13;;;;;;;26.20;22.58;;;15.10;99.90;;;;;;5050664;28;20740;-64
2021/09/06 07:18:41;;;;;;;27.08;21.38;;;15.20;99.90;;;;;;5050602;28;20197;-66
2021/09/06 07:21:09;;;;;;;28.40;21.80;;;15.30;99.90;;;;;;5050814;28;20269;-67
2021/09/06 07:23:36;;;;;;;27.38;22.50;;;15.30;99.90;;;;;;5050656;28;20606;-66
2021/09/06 07:26:04;;;;;;;27.63;22.52;;;15.40;99.90;;;;;;5050647;28;20201;-68
2021/09/06 07:28:32;;;;;;;29.63;22.45;;;15.50;99.90;;;;;;5051047;28;20292;-66
2021/09/06 07:31:02;;;;;;;26.52;21.38;;;15.50;99.90;;;;;;5050771;28;20205;-67
2021/09/06 07:33:30;;;;;;;28.85;22.33;;;15.50;99.90;;;;;;5050335;28;20263;-68
2021/09/06 07:35:57;;;;;;;30.23;23.35;;;15.70;99.90;;;;;;5049441;28;20233;-64
2021/09/06 07:38:25;;;;;;;27.92;22.75;;;15.70;99.90;;;;;;5049911;28;20808;-62
2021/09/06 07:40:53;;;;;;;25.65;21.25;;;15.70;99.90;;;;;;5050238;28;20285;-62
2021/09/06 07:43:23;;;;;;;28.65;23.95;;;15.70;99.90;;;;;;5050472;28;20197;-74
2021/09/06 07:45:50;;;;;;;27.35;21.50;;;15.70;99.90;;;;;;5050384;28;20910;-77
2021/09/06 07:48:20;;;;;;;30.88;23.15;;;15.80;99.90;;;;;;5052081;28;20657;-68
2021/09/06 07:50:48;;;;;;;28.88;22.15;;;15.90;99.90;;;;;;5050120;28;20201;-72
2021/09/06 07:53:16;;;;;;;28.08;22.95;;;16.00;99.90;;;;;;5049846;28;20630;-70
2021/09/06 07:55:45;;;;;;;25.88;21.08;;;16.10;99.90;;;;;;5050135;28;20205;-67
2021/09/06 07:58:12;;;;;;;27.23;21.65;;;16.20;99.90;;;;;;5049767;28;20208;-69
2021/09/06 08:00:40;;;;;;;26.73;20.50;;;16.30;99.90;;;;;;5049952;28;20202;-69
2021/09/06 08:03:08;;;;;;;26.08;21.20;;;16.40;99.90;;;;;;5050075;28;20208;-69
2021/09/06 08:05:38;;;;;;;27.85;22.17;;;16.50;99.90;;;;;;5049473;28;20275;-72
2021/09/06 08:08:06;;;;;;;27.95;22.67;;;16.60;99.90;;;;;;5049479;28;20201;-71
2021/09/06 08:10:34;;;;;;;25.63;20.17;;;16.60;99.90;;;;;;5050255;28;20205;-72
2021/09/06 08:13:02;;;;;;;27.90;21.25;;;16.70;99.90;;;;;;5049685;28;20208;-71
2021/09/06 08:15:30;;;;;;;26.52;21.55;;;16.80;99.90;;;;;;5049924;28;20292;-72
2021/09/06 08:17:58;;;;;;;25.45;19.48;;;17.00;99.90;;;;;;5049661;28;20201;-70
2021/09/06 08:20:26;;;;;;;29.02;22.42;;;17.10;99.90;;;;;;5049555;28;20553;-67
2021/09/06 08:22:56;;;;;;;26.98;21.63;;;17.20;99.90;;;;;;5049669;28;20225;-67
2021/09/06 08:25:24;;;;;;;24.38;20.30;;;17.20;99.90;;;;;;5049427;28;20645;-65
2021/09/06 08:27:51;;;;;;;27.92;22.15;;;17.30;99.90;;;;;;5049343;28;20197;-64
2021/09/06 08:30:19;;;;;;;30.70;23.38;;;17.50;99.90;;;;;;5048679;28;20248;-65
2021/09/06 08:32:47;;;;;;;25.42;21.25;;;17.60;99.90;;;;;;5049650;28;20292;-65
2021/09/06 08:35:15;;;;;;;25.90;20.35;;;17.70;99.90;;;;;;5049111;28;20225;-66
2021/09/06 08:37:44;;;;;;;24.83;20.70;;;17.70;99.90;;;;;;5049234;28;20304;-70
2021/09/06 08:40:14;;;;;;;23.83;19.75;;;17.80;99.90;;;;;;5049352;28;20300;-70
2021/09/06 08:42:43;;;;;;;23.45;18.85;;;17.90;99.90;;;;;;5049628;28;20204;-69
2021/09/06 08:45:12;;;;;;;26.67;21.70;;;17.90;99.90;;;;;;5049250;28;20336;-68
2021/09/06 08:47:41;;;;;;;27.30;23.25;;;18.00;99.90;;;;;;5050112;28;20287;-67
2021/09/06 08:50:12;;;;;;;27.15;21.88;;;18.10;99.90;;;;;;5052975;28;20300;-70
2021/09/06 08:52:41;;;;;;;24.73;19.77;;;18.20;99.90;;;;;;5053137;28;20667;-69
2021/09/06 08:55:10;;;;;;;23.02;19.17;;;18.30;99.90;;;;;;5052990;28;20682;-69
2021/09/06 08:57:39;;;;;;;27.08;21.60;;;18.30;99.90;;;;;;5052692;28;20223;-69
2021/09/06 09:00:10;;;;;;;21.77;18.85;;;18.40;99.90;;;;;;5053244;28;20740;-69
2021/09/06 09:02:40;;;;;;;22.10;18.30;;;18.50;99.90;;;;;;5052605;28;20652;-70
2021/09/06 09:05:11;;;;;;;28.63;21.65;;;18.60;99.90;;;;;;5052144;28;20225;-69
2021/09/06 09:07:40;;;;;;;24.80;19.80;;;18.70;99.90;;;;;;5052563;28;20185;-69
2021/09/06 09:10:10;;;;;;;22.92;18.63;;;18.80;99.90;;;;;;5052558;28;20299;-69
2021/09/06 09:12:40;;;;;;;21.40;18.13;;;18.80;99.90;;;;;;5052377;28;20278;-70
2021/09/06 09:15:09;;;;;;;19.90;16.15;;;18.90;99.90;;;;;;5052332;28;20241;-69
2021/09/06 09:17:39;;;;;;;25.80;19.95;;;18.90;99.90;;;;;;5051932;28;20661;-65
2021/09/06 09:20:08;;;;;;;24.35;18.42;;;19.10;99.90;;;;;;5052516;28;20296;-69
2021/09/06 09:22:37;;;;;;;28.08;20.95;;;19.10;99.90;;;;;;5053100;28;20560;-70
2021/09/06 09:25:08;;;;;;;23.92;20.08;;;19.20;99.90;;;;;;5052918;28;20770;-71
2021/09/06 09:27:41;;;;;;;25.85;20.30;;;19.30;99.90;;;;;;5054450;28;20182;-70
2021/09/06 09:30:21;;;;;;;23.52;19.27;;;19.50;99.90;;;;;;5053864;28;20276;-72
2021/09/06 09:32:49;;;;;;;25.27;19.35;;;19.50;99.90;;;;;;5053680;28;20612;-71
2021/09/06 09:35:17;;;;;;;23.30;18.52;;;19.50;99.90;;;;;;5053661;28;20321;-70
2021/09/06 09:37:44;;;;;;;24.58;20.20;;;19.60;99.90;;;;;;5053760;28;20202;-71
2021/09/06 09:40:13;;;;;;;24.42;18.08;;;19.80;99.90;;;;;;5053279;28;20204;-68
2021/09/06 09:42:51;;;;;;;24.85;20.75;;;19.80;99.90;;;;;;5052627;28;20297;-69
2021/09/06 09:45:24;;;;;;;22.73;18.63;;;19.80;99.90;;;;;;5052758;28;20276;-68
2021/09/06 09:47:53;;;;;;;25.67;21.15;;;19.90;99.90;;;;;;5051977;28;20209;-69
2021/09/06 09:50:22;;;;;;;23.98;20.58;;;19.90;99.90;;;;;;5051630;28;20853;-68
2021/09/06 09:52:52;;;;;;;25.08;21.20;;;19.90;99.90;;;;;;5051779;28;20205;-69
2021/09/06 09:55:20;;;;;;;22.90;18.70;;;19.90;99.90;;;;;;5052176;28;20217;-70
2021/09/06 09:57:49;;;;;;;21.55;18.08;;;19.90;99.90;;;;;;5051891;28;20228;-66
2021/09/06 10:00:18;;;;;;;23.75;19.30;;;20.00;99.90;;;;;;5051409;28;20201;-68
2021/09/06 10:02:51;;;;;;;22.00;19.20;;;20.10;99.90;;;;;;5050933;28;20728;-66
2021/09/06 10:05:24;;;;;;;23.70;19.00;;;20.20;99.90;;;;;;5051375;28;20726;-66
2021/09/06 10:07:52;;;;;;;22.13;18.65;;;20.30;99.90;;;;;;5051392;28;20220;-65
2021/09/06 10:10:22;;;;;;;25.75;19.90;;;20.40;99.90;;;;;;5051754;28;20293;-66
2021/09/06 10:13:03;;;;;;;21.65;18.15;;;20.50;99.90;;;;;;5051399;28;20567;-68
2021/09/06 10:15:32;;;;;;;23.80;18.95;;;20.60;99.90;;;;;;5051282;28;20233;-67
2021/09/06 10:18:02;;;;;;;22.55;19.38;;;20.50;99.90;;;;;;5050986;28;20201;-66
2021/09/06 10:20:30;;;;;;;21.88;16.90;;;20.60;99.90;;;;;;5051761;28;20252;-67
2021/09/06 10:23:05;;;;;;;23.27;18.48;;;20.70;99.90;;;;;;5051585;28;20284;-69
2021/09/06 10:25:35;;;;;;;22.10;17.08;;;20.70;99.90;;;;;;5056400;28;20282;-75
2021/09/06 10:28:05;;;;;;;21.30;18.15;;;20.70;99.90;;;;;;5052040;28;20264;-67
2021/09/06 10:30:40;;;;;;;21.30;16.58;;;20.80;99.90;;;;;;5050809;28;20277;-66
2021/09/06 10:33:20;;;;;;;23.08;17.23;;;20.80;99.90;;;;;;5052000;28;20592;-66
2021/09/06 10:35:48;;;;;;;19.52;15.73;;;20.80;99.90;;;;;;5051087;28;20634;-68
2021/09/06 10:38:17;;;;;;;18.75;16.30;;;20.80;99.90;;;;;;5051506;28;20292;-70
2021/09/06 10:40:46;;;;;;;18.42;15.40;;;21.00;99.90;;;;;;5051473;28;20296;-70
2021/09/06 10:43:17;;;;;;;18.70;14.90;;;21.00;99.90;;;;;;5051343;28;20236;-71
2021/09/06 10:45:48;;;;;;;18.02;15.88;;;21.00;99.90;;;;;;5051832;28;20587;-68
2021/09/06 10:48:19;;;;;;;17.90;14.45;;;21.00;99.90;;;;;;5050831;28;20630;-69
2021/09/06 10:50:48;;;;;;;18.95;15.00;;;21.00;99.90;;;;;;5047383;28;20517;-68
2021/09/06 10:53:18;;;;;;;17.85;14.77;;;21.00;99.90;;;;;;5050567;28;20225;-70
2021/09/06 10:55:48;;;;;;;15.93;13.60;;;21.00;99.90;;;;;;5051675;28;20257;-70
2021/09/06 10:58:18;;;;;;;17.55;15.68;;;21.10;99.90;;;;;;5051265;28;20201;-69
2021/09/06 11:00:51;;;;;;;17.00;13.93;;;21.20;99.90;;;;;;5051363;28;20204;-70
2021/09/06 11:03:20;;;;;;;20.40;14.73;;;21.20;99.90;;;;;;5050959;28;20225;-69
2021/09/06 11:05:53;;;;;;;17.88;15.38;;;21.30;99.90;;;;;;5050657;28;20302;-71
2021/09/06 11:08:25;;;;;;;17.48;14.80;;;21.40;99.90;;;;;;5050507;28;20574;-70
2021/09/06 11:10:53;;;;;;;16.48;14.32;;;21.40;99.90;;;;;;5050220;28;20281;-70
2021/09/06 11:13:23;;;;;;;17.10;14.45;;;21.40;99.90;;;;;;5049997;28;20204;-71
2021/09/06 11:15:51;;;;;;;15.95;13.65;;;21.50;99.90;;;;;;5050584;28;20823;-70
2021/09/06 11:18:19;;;;;;;17.45;14.23;;;21.50;99.90;;;;;;5049263;28;20719;-70
2021/09/06 11:20:47;;;;;;;16.33;13.77;;;21.60;99.90;;;;;;5049701;28;20296;-71
2021/09/06 11:23:15;;;;;;;16.02;13.35;;;21.70;99.90;;;;;;5049637;28;20224;-69
2021/09/06 11:25:43;;;;;;;15.05;13.45;;;21.80;99.90;;;;;;5049513;28;20204;-71
2021/09/06 11:28:13;;;;;;;20.42;15.15;;;21.80;99.90;;;;;;5048818;28;20292;-70
2021/09/06 11:30:44;;;;;;;18.83;14.88;;;21.90;99.90;;;;;;5049202;28;20292;-71
2021/09/06 11:33:14;;;;;;;16.65;13.65;;;21.90;99.90;;;;;;5048899;28;20192;-70
2021/09/06 11:35:45;;;;;;;18.10;15.05;;;21.90;99.90;;;;;;5049628;28;20209;-71
2021/09/06 11:38:14;;;;;;;18.30;14.93;;;22.00;99.90;;;;;;5049509;28;20759;-69
2021/09/06 11:40:43;;;;;;;20.85;15.52;;;22.00;99.90;;;;;;5049538;28;20198;-70
2021/09/06 11:43:11;;;;;;;17.27;13.93;;;21.90;99.90;;;;;;5049420;28;20228;-70
2021/09/06 11:45:39;;;;;;;18.08;14.65;;;22.00;99.90;;;;;;5049578;28;20205;-70
2021/09/06 11:48:09;;;;;;;16.83;15.05;;;22.00;99.90;;;;;;5049294;28;20202;-69
2021/09/06 11:50:40;;;;;;;18.38;14.35;;;22.10;99.90;;;;;;5049500;28;20292;-70
2021/09/06 11:53:10;;;;;;;18.45;15.07;;;22.20;99.90;;;;;;5048955;28;20204;-66
2021/09/06 11:55:49;;;;;;;21.90;16.13;;;22.20;99.90;;;;;;5049299;28;20205;-67
2021/09/06 11:58:43;;;;;;;20.88;17.00;;;22.10;99.90;;;;;;5048862;28;20656;-67
2021/09/06 12:01:14;;;;;;;17.33;15.50;;;22.20;99.90;;;;;;5049217;28;20224;-68
2021/09/06 12:03:45;;;;;;;18.50;15.25;;;22.20;99.90;;;;;;5048844;28;20194;-70
2021/09/06 12:06:15;;;;;;;18.25;16.27;;;22.30;99.90;;;;;;5048958;28;20319;-70
2021/09/06 12:08:53;;;;;;;19.30;16.75;;;22.30;99.90;;;;;;5049053;28;20236;-71
2021/09/06 12:11:43;;;;;;;21.60;16.42;;;22.40;99.90;;;;;;5049058;28;20564;-69
2021/09/06 12:14:11;;;;;;;19.75;16.33;;;22.40;99.90;;;;;;5049318;28;20883;-69
2021/09/06 12:16:39;;;;;;;18.42;15.25;;;22.50;99.90;;;;;;5049218;28;20221;-69
2021/09/06 12:19:18;;;;;;;21.83;16.42;;;22.60;99.90;;;;;;5048957;28;20208;-68
2021/09/06 12:21:47;;;;;;;16.90;15.10;;;22.60;99.90;;;;;;5049991;28;20284;-63
2021/09/06 12:24:20;;;;;;;17.48;14.10;;;22.60;99.90;;;;;;5053518;28;20201;-62
2021/09/06 12:26:48;;;;;;;18.63;16.23;;;22.70;99.90;;;;;;5052916;28;20186;-68
2021/09/06 12:29:26;;;;;;;20.65;16.08;;;22.70;99.90;;;;;;5052568;28;20197;-68
2021/09/06 12:31:54;;;;;;;15.10;13.48;;;22.60;99.90;;;;;;5053155;28;20280;-69
2021/09/06 12:34:23;;;;;;;16.77;14.98;;;22.60;99.90;;;;;;5052684;28;20293;-68
2021/09/06 12:36:58;;;;;;;17.88;15.23;;;22.70;99.90;;;;;;5052637;28;20223;-65